Flight Track Log - Related Links

Times and Time Zones

All times are in EDT time to prevent confusion due to time zone crossing. See the WAV760 flight status page for this flight to view local times or setup timezone preferences in your user account.

Time Position Orientation Groundspeed Altitude Reporting Facility
EDT Latitude Longitude Course Direction KTS MPH feet Rate Location/Type
Tue 09:07:57 PM 64.8667 -147.9000 282° West 130 150 4,000  Level Anchorage Center
Tue 09:08:57 PM 64.8833 -147.9833 295° West 130 150 4,900 893 Climbing Anchorage Center
Tue 09:09:58 PM 64.8833 -148.0667 270° West 140 161 5,800 744 Climbing Anchorage Center
Tue 09:10:58 PM 64.9000 -148.1667 291° West 140 161 6,400 700 Climbing Anchorage Center
Tue 09:11:00 PM 64.8739 -148.4578 282° West  Level Estimated
Tue 09:11:58 PM 64.9000 -148.2500 270° West 140 161 7,200  Level Anchorage Center
Tue 09:12:00 PM 64.8833 -148.5584 282° West  Level FlightAware Approximate
Tue 09:12:59 PM 64.9000 -148.3500 270° West 140 161 8,000  Level Anchorage Center
Tue 09:13:00 PM 64.8926 -148.6591 282° West  Level FlightAware Approximate
Tue 09:13:59 PM 64.9167 -148.4500 292° West 160 184 8,000  Level Anchorage Center
Tue 09:15:00 PM 64.9333 -148.5333 295° West 150 173 8,000  Level Anchorage Center
Tue 09:16:00 PM 64.9333 -148.6500 270° West 160 184 8,000  Level Anchorage Center
Tue 09:17:00 PM 64.9500 -148.7500 292° West 160 184 8,000  Level Anchorage Center
Tue 09:18:01 PM 64.9500 -148.8500 270° West 160 184 8,000  Level Anchorage Center
Tue 09:19:01 PM 64.9667 -148.9667 289° West 160 184 8,000  Level Anchorage Center
Tue 09:20:01 PM 64.9667 -149.0667 270° West 170 196 8,000  Level Anchorage Center
Tue 09:21:02 PM 64.9833 -149.1667 292° West 170 196 8,000  Level Anchorage Center
Tue 09:22:02 PM 64.9833 -149.2833 270° West 170 196 8,000  Level Anchorage Center
Tue 09:24:00 PM 64.9965 -149.4843 279° West  Level FlightAware Approximate
Tue 09:31:00 PM 65.0413 -150.2011 279° West  Level FlightAware Approximate
Tue 09:32:00 PM 65.0474 -150.3037 278° West  Level FlightAware Approximate
Tue 09:33:00 PM 65.0535 -150.4064 278° West  Level FlightAware Approximate
Tue 09:34:00 PM 65.0594 -150.5090 278° West  Level FlightAware Approximate
Tue 09:35:00 PM 65.0653 -150.6118 278° West  Level FlightAware Approximate
Tue 09:36:00 PM 65.0712 -150.7146 278° West  Level FlightAware Approximate
Tue 09:37:00 PM 65.0769 -150.8174 278° West  Level FlightAware Approximate
Tue 09:38:00 PM 65.0826 -150.9203 278° West  Level FlightAware Approximate
Tue 09:39:00 PM 65.0904 -151.0242 281° West  Level FlightAware Approximate
Tue 09:40:00 PM 65.0983 -151.1263 280° West  Level FlightAware Approximate
Tue 09:41:00 PM 65.1062 -151.2285 280° West  Level FlightAware Approximate
Tue 09:42:00 PM 65.1140 -151.3307 280° West  Level FlightAware Approximate
Tue 09:43:00 PM 65.1207 -151.4333 278° West  Level FlightAware Approximate
Tue 09:44:00 PM 65.1269 -151.5362 278° West  Level FlightAware Approximate
Tue 09:45:00 PM 65.1330 -151.6391 278° West  Level FlightAware Approximate
Tue 09:46:00 PM 65.1390 -151.7421 278° West  Level FlightAware Approximate
Tue 09:47:00 PM 65.1450 -151.8452 278° West  Level FlightAware Approximate
Tue 09:48:00 PM 65.1515 -151.9480 283° West  Level FlightAware Approximate
Tue 09:49:00 PM 65.1616 -152.0492 283° West  Level FlightAware Approximate
Tue 09:50:00 PM 65.1667 -152.1000 283° West  Level FlightAware Approximate
Tue 09:51:00 PM 65.1744 -152.1081 283° West  Level Estimated
Tue 09:52:00 PM 65.1744 -152.1081 283° West  Level Estimated
Tue 09:53:00 PM 65.1744 -152.1081 283° West  Level Estimated
Tue 09:54:00 PM 65.1744 -152.1081 283° West  Level Estimated
Tue 09:55:00 PM 65.1744 -152.1081 283° West  Level Estimated
Tue 09:56:00 PM 65.1744 -152.1081 283° West  Level Estimated
Tue 09:57:00 PM 65.1744 -152.1081 283° West  Level Estimated
Tue 09:58:00 PM 65.1744 -152.1081 283° West  Level Estimated
Tue 09:59:00 PM 65.1744 -152.1081 283° West  Level Estimated
Tue 10:00:00 PM 65.1744 -152.1081 283° West  Level Estimated
Tue 10:01:00 PM 65.1744 -152.1081 283° West  Level Estimated
Tue 10:02:00 PM 65.1744 -152.1081 283° West  Level Estimated
Tue 10:03:00 PM 65.1744 -152.1081 283° West  Level Estimated

Login

Don't have an account? Register now (free) for customized features, flight alerts, and more!